Latest Weather Observations for Goulburn Airport

IDN60801

Issued at 11:03 am EST Saturday 27 August 2016 (issued every 30 minutes, with the page automatically refreshed every 10 minutes)

About weather observations | Map of weather stations | Latest weather observations for NSW | Other Formats
Station Details ID: 070330 Name: GOULBURN AIRPORT AWS Lat: -34.81 Lon: 149.73 Height: 640.0 m
Data from the previous 72 hours. | See also: Recent months at Goulburn Airport
Date/Time
EST
Temp
°C
App
Temp
°C
Dew
Point
°C
Rel
Hum
%
Delta-T
°C
Wind Press
QNH
hPa
Press
MSL
hPa
Rain since
9am
mm
Dir  Spd
km/h
Gust
km/h
Spd
kts
Gust
kts
27/10:30am 8.3 1.6 1.7 63 2.8 WNW 26 32 14 17 1023.1 1024.0 0.0
27/10:00am 8.0 2.5 2.0 66 2.6 WNW 20 30 11 16 1023.3 1024.1 0.0
27/09:30am 6.9 2.4 2.2 72 2.0 WNW 15 20 8 11 1023.4 1024.2 0.0
27/09:00am 5.6 0.8 2.4 80 1.4 NW 17 20 9 11 1023.3 1024.1 0.0
27/08:30am 3.4 -0.1 1.3 86 0.8 NW 9 13 5 7 1022.9 1023.8 0.0
27/08:00am 2.0 -1.2 1.0 93 0.4 NNW 7 9 4 5 1022.6 1023.5 0.0
27/07:30am -0.5 -2.6 -0.9 97 0.1 CALM 0 0 0 0 1022.4 1023.3 0.0
27/07:00am -1.7 -4.7 -2.1 97 0.1 N 4 6 2 3 1022.1 1023.0 0.0
27/06:30am -2.7 -6.2 -3.2 96 0.0 N 6 7 3 4 1022.1 1023.0 0.0
27/06:00am -1.8 -4.8 -2.2 97 0.1 N 4 6 2 3 1022.0 1022.8 0.0
27/05:30am -2.4 -6.1 -2.9 96 0.1 N 7 9 4 5 1021.9 1022.7 0.0
27/05:00am -2.0 -5.5 -2.7 95 0.1 NNE 6 7 3 4 1021.9 1022.7 0.0
27/04:30am -2.2 -4.6 -2.9 95 0.1 CALM 0 0 0 0 1021.7 1022.5 0.0
27/04:00am -1.8 -4.1 -2.5 95 0.2 CALM 0 0 0 0 1021.6 1022.4 0.0
27/03:30am -1.9 -4.2 -2.7 94 0.2 CALM 0 0 0 0 1021.4 1022.3 0.0
27/03:00am -1.2 -3.4 -1.8 96 0.2 CALM 0 0 0 0 1021.6 1022.4 0.0
27/02:30am -1.9 -4.3 -2.9 93 0.3 CALM 0 0 0 0 1021.7 1022.5 0.0
27/02:00am -0.7 -3.3 -1.4 95 0.2 NNW 2 6 1 3 1021.7 1022.5 0.0
27/01:30am -1.5 -3.8 -2.5 93 0.3 CALM 0 0 0 0 1021.9 1022.7 0.0
27/01:00am -0.5 -2.7 -1.2 95 0.2 CALM 0 0 0 0 1022.0 1022.8 0.0
27/12:30am -0.4 -2.6 -1.5 92 0.4 CALM 0 0 0 0 1021.9 1022.7 0.0
27/12:00am -0.1 -2.3 -1.4 91 0.5 CALM 0 0 0 0 1021.9 1022.7 0.0
 
Date/Time
EST
Temp
°C
App
Temp
°C
Dew
Point
°C
Rel
Hum
%
Delta-T
°C
Wind Press
QNH
hPa
Press
MSL
hPa
Rain since
9am
mm
Dir  Spd
km/h
Gust
km/h
Spd
kts
Gust
kts
26/11:30pm 0.8 -1.3 -0.5 91 0.5 CALM 0 0 0 0 1021.8 1022.6 0.0
26/11:00pm 1.7 -0.2 0.7 93 0.4 CALM 0 0 0 0 1021.9 1022.7 0.0
26/10:30pm 0.8 -1.3 -0.6 90 0.5 CALM 0 0 0 0 1021.7 1022.5 0.0
26/10:00pm 1.7 -1.5 -0.5 85 0.8 NW 6 9 3 5 1021.4 1022.3 0.0
26/09:30pm 2.3 -1.5 -0.4 82 1.0 NNW 9 11 5 6 1021.3 1022.2 0.0
26/09:00pm 2.9 -1.5 0.3 83 1.0 NNW 13 15 7 8 1021.0 1021.9 0.0
26/08:30pm 2.4 -1.0 -0.4 82 1.1 NNW 7 11 4 6 1020.8 1021.7 0.0
26/08:00pm 2.8 -0.4 -0.3 80 1.2 NNW 6 13 3 7 1020.6 1021.4 0.0
26/07:30pm 3.5 0.4 -0.1 77 1.4 NW 6 9 3 5 1020.5 1021.3 0.0
26/07:00pm 5.0 -0.1 0.8 74 1.7 WNW 17 19 9 10 1020.3 1021.1 0.0
26/06:30pm 5.4 0.6 0.2 69 2.1 NW 15 17 8 9 1020.0 1020.8 0.0
26/06:00pm 5.9 1.1 0.5 68 2.2 NW 15 17 8 9 1019.6 1020.5 0.0
26/05:30pm 7.4 2.3 0.8 63 2.7 WNW 17 20 9 11 1019.3 1020.1 0.0
26/05:00pm 9.1 4.0 0.8 56 3.5 W 17 20 9 11 1019.1 1019.9 0.0
26/04:30pm 10.1 4.7 1.0 53 3.9 WNW 19 24 10 13 1018.9 1019.7 0.0
26/04:00pm 10.8 6.9 1.1 51 4.2 WSW 11 24 6 13 1018.6 1019.4 0.0
26/03:30pm 11.0 5.5 0.7 49 4.4 WNW 19 26 10 14 1018.1 1019.0 0.0
26/03:00pm 11.3 7.0 1.0 49 4.5 WSW 13 19 7 10 1018.1 1019.0 0.0
26/02:30pm 11.3 7.4 1.3 50 4.4 WNW 11 20 6 11 1018.0 1018.8 0.0
26/02:00pm 11.2 6.9 0.9 49 4.4 W 13 20 7 11 1018.1 1019.0 0.0
26/01:30pm 10.8 7.3 1.4 52 4.1 SW 9 15 5 8 1018.3 1019.1 0.0
26/01:00pm 10.8 6.8 0.5 49 4.4 SSW 11 19 6 10 1018.3 1019.1 0.0
26/12:30pm 9.9 6.2 0.0 50 4.1 SW 9 17 5 9 1018.6 1019.4 0.0
26/12:00pm 9.9 5.9 0.3 51 4.0 WSW 11 22 6 12 1019.0 1019.8 0.0
26/11:30am 9.1 4.6 -0.2 52 3.8 SW 13 20 7 11 1019.3 1020.1 0.0
26/11:00am 8.9 5.2 0.1 54 3.6 SSW 9 19 5 10 1019.6 1020.5 0.0
26/10:30am 8.3 4.4 1.0 60 3.1 SSW 11 20 6 11 1019.7 1020.6 0.0
26/10:00am 7.2 4.1 0.4 62 2.8 S 6 11 3 6 1019.7 1020.6 0.0
26/09:30am 6.8 3.3 1.1 67 2.4 SSW 9 11 5 6 1019.7 1020.6 0.0
26/09:00am 5.3 2.2 1.4 76 1.6 SSW 7 9 4 5 1019.5 1020.4 1.0
26/08:30am 4.1 0.8 0.3 76 1.5 WSW 7 11 4 6 1019.5 1020.4 1.0
26/08:00am 2.4 -0.8 0.8 89 0.6 N 7 9 4 5 1019.2 1020.0 1.0
26/07:30am 0.3 -2.5 -0.4 95 0.3 NNE 4 9 2 5 1018.9 1019.7 1.0
26/07:00am -1.6 -5.2 -2.4 94 0.2 N 7 9 4 5 1018.6 1019.4 1.0
26/06:30am -1.7 -5.4 -2.7 93 0.3 N 7 7 4 4 1018.0 1018.8 1.0
26/06:00am -1.5 -4.2 -2.2 95 0.2 N 2 9 1 5 1017.7 1018.5 1.0
26/05:30am -0.9 -3.9 -1.6 95 0.2 N 4 7 2 4 1017.3 1018.1 1.0
26/05:00am -1.6 -4.3 -2.7 92 0.3 ENE 2 7 1 4 1016.9 1017.7 1.0
26/04:30am -0.6 -2.8 -1.4 94 0.3 CALM 0 0 0 0 1016.6 1017.3 1.0
26/04:00am -0.1 -2.2 -0.9 94 0.3 CALM 0 0 0 0 1016.4 1017.2 1.0
26/03:30am -0.4 -3.3 -1.2 94 0.3 SW 4 9 2 5 1016.2 1017.0 1.0
26/03:00am 0.4 -2.4 -0.3 95 0.3 W 4 7 2 4 1016.1 1016.9 1.0
26/02:30am -0.1 -3.9 -0.9 94 0.3 WSW 9 9 5 5 1016.0 1016.8 1.0
26/02:00am 0.5 -3.3 -0.6 92 0.4 WSW 9 11 5 6 1015.9 1016.7 1.0
26/01:30am 1.9 -1.3 0.6 91 0.5 SW 7 9 4 5 1016.1 1016.9 1.0
26/01:00am 2.4 -0.7 1.1 91 0.5 SW 7 9 4 5 1016.1 1016.9 1.0
26/12:30am 2.6 -1.0 0.5 86 0.8 SSW 9 11 5 6 1016.0 1016.8 1.0
26/12:00am 4.2 0.0 1.6 83 1.1 SSW 13 17 7 9 1015.8 1016.6 1.0
 
Date/Time
EST
Temp
°C
App
Temp
°C
Dew
Point
°C
Rel
Hum
%
Delta-T
°C
Wind Press
QNH
hPa
Press
MSL
hPa
Rain since
9am
mm
Dir  Spd
km/h
Gust
km/h
Spd
kts
Gust
kts
25/11:30pm 4.7 0.6 2.2 84 1.0 WSW 13 19 7 10 1015.6 1016.4 1.0
25/11:00pm 4.6 -0.2 2.6 87 0.8 W 17 22 9 12 1015.3 1016.0 1.0
25/10:30pm 4.6 0.2 2.6 87 0.8 W 15 20 8 11 1015.3 1016.0 1.0
25/10:14pm 4.4 0.0 2.6 88 0.8 WNW 15 20 8 11 1015.2 1015.9 1.0
25/10:00pm 4.3 -0.1 2.5 88 0.8 W 15 20 8 11 1015.1 1015.8 1.0
25/09:32pm 3.8 -0.4 1.8 87 0.8 WNW 13 17 7 9 1014.9 1015.6 1.0
25/09:30pm 3.9 -0.3 1.9 87 0.8 WNW 13 17 7 9 1014.9 1015.6 1.0
25/09:00pm 3.6 0.1 1.2 84 1.0 NNW 9 11 5 6 1014.7 1015.5 1.0
25/08:30pm 4.3 -1.0 1.8 84 1.0 WNW 19 26 10 14 1014.6 1015.4 1.0
25/08:00pm 4.3 -2.0 1.8 84 1.0 WNW 24 28 13 15 1014.2 1015.0 1.0
25/07:30pm 4.9 -1.0 1.9 81 1.2 WNW 22 30 12 16 1014.3 1015.1 1.0
25/07:00pm 5.4 -1.8 2.9 84 1.1 W 30 39 16 21 1013.9 1014.6 1.0
25/06:30pm 5.9 -0.9 2.9 81 1.3 WNW 28 39 15 21 1013.3 1014.0 1.0
25/06:00pm 6.4 -1.1 3.2 80 1.4 W 32 41 17 22 1012.6 1013.3 1.0
25/05:30pm 6.9 1.3 3.3 78 1.6 W 22 33 12 18 1012.1 1012.8 1.0
25/05:09pm 6.0 -1.5 1.0 70 2.1 WSW 30 46 16 25 1012.0 1012.7 1.0
25/05:01pm 6.6 -0.3 2.7 76 1.7 W 28 46 15 25 1011.9 1012.6 0.2
25/05:00pm 6.8 -0.5 2.7 75 1.8 WNW 30 46 16 25 1011.8 1012.5 0.2
25/04:30pm 9.0 3.2 2.1 62 3.0 W 22 28 12 15 1011.1 1011.8 0.0
25/04:00pm 10.1 3.2 2.7 60 3.3 WNW 28 37 15 20 1011.0 1011.7 0.0
25/03:30pm 10.1 3.6 2.5 59 3.4 WNW 26 32 14 17 1011.0 1011.7 0.0
25/03:00pm 10.7 4.2 2.5 57 3.7 W 26 33 14 18 1010.9 1011.6 0.0
25/02:30pm 10.5 3.6 2.4 57 3.6 W 28 35 15 19 1010.8 1011.5 0.0
25/02:00pm 10.4 2.7 2.5 58 3.5 W 32 41 17 22 1010.7 1011.4 0.0
25/01:30pm 10.3 3.5 3.1 61 3.2 W 28 37 15 20 1010.6 1011.3 0.0
25/01:00pm 10.1 3.7 3.2 62 3.1 W 26 35 14 19 1010.7 1011.4 0.0
25/12:30pm 9.0 2.5 2.8 65 2.7 W 26 35 14 19 1010.9 1011.6 0.0
25/12:00pm 8.9 1.7 3.1 67 2.6 W 30 39 16 21 1011.0 1011.7 0.0
25/11:30am 9.7 2.4 4.7 71 2.3 W 32 44 17 24 1011.1 1011.8 0.0
25/11:00am 8.0 1.7 3.8 75 1.9 W 26 33 14 18 1011.4 1012.1 0.0
25/10:53am 7.8 1.4 3.1 72 2.1 W 26 39 14 21 1011.4 1012.1 0.0
25/10:30am 7.6 2.5 4.2 79 1.5 W 20 32 11 17 1011.6 1012.3 0.0
25/10:00am 6.2 -0.1 3.5 83 1.2 W 26 35 14 19 1011.7 1012.4 0.0
25/09:30am 5.7 0.1 3.4 85 1.0 W 22 28 12 15 1011.6 1012.3 0.0
25/09:00am 5.8 1.3 4.0 88 0.8 WSW 17 20 9 11 1011.3 1012.0 32.2
25/08:46am 5.2 0.6 3.7 90 0.7 W 17 20 9 11 1011.4 1012.1 32.2
25/08:30am 4.9 -0.1 3.6 91 0.6 W 19 22 10 12 1011.4 1012.1 32.2
25/08:00am 4.0 0.5 3.4 96 0.3 W 11 17 6 9 1011.3 1012.0 32.2
25/07:30am 3.0 -1.5 2.3 95 0.3 WNW 15 20 8 11 1011.1 1011.8 32.2
25/07:00am 2.8 -1.7 2.2 96 0.2 WNW 15 17 8 9 1010.6 1011.3 32.2
25/06:30am 2.5 -0.6 1.6 94 0.4 W 7 11 4 6 1010.4 1011.1 32.2
25/06:00am 3.4 -0.3 2.5 94 0.4 W 11 13 6 7 1009.7 1010.4 32.2
25/05:30am 4.1 0.5 2.9 92 0.5 WSW 11 17 6 9 1009.3 1010.0 32.2
25/05:00am 4.5 0.6 3.6 94 0.4 WSW 13 17 7 9 1009.1 1009.8 32.2
25/04:30am 4.1 1.0 3.5 96 0.3 WSW 9 11 5 6 1008.8 1009.4 32.2
25/04:00am 4.0 0.1 3.3 95 0.3 WSW 13 17 7 9 1008.8 1009.4 32.2
25/03:30am 4.2 0.7 3.5 95 0.3 W 11 13 6 7 1008.8 1009.4 32.2
25/03:00am 4.2 1.1 3.5 95 0.3 WSW 9 11 5 6 1008.7 1009.3 32.0
25/02:30am 4.3 1.2 3.6 95 0.3 W 9 13 5 7 1008.8 1009.4 32.0
25/02:00am 4.3 0.8 3.6 95 0.3 WSW 11 13 6 7 1008.9 1009.6 31.8
25/01:30am 4.4 0.6 3.7 95 0.3 SSW 13 15 7 8 1009.2 1009.9 31.4
25/01:00am 4.4 -0.2 3.7 95 0.3 SSW 17 20 9 11 1009.5 1010.2 30.8
25/12:30am 4.4 0.2 3.8 96 0.3 SW 15 17 8 9 1009.5 1010.2 29.6
25/12:00am 4.3 0.5 3.7 96 0.3 SW 13 17 7 9 1009.5 1010.2 29.0
 
Date/Time
EST
Temp
°C
App
Temp
°C
Dew
Point
°C
Rel
Hum
%
Delta-T
°C
Wind Press
QNH
hPa
Press
MSL
hPa
Rain since
9am
mm
Dir  Spd
km/h
Gust
km/h
Spd
kts
Gust
kts
24/11:30pm 4.3 -0.3 3.6 95 0.3 SSW 17 20 9 11 1009.7 1010.4 27.6
24/11:26pm 4.3 -0.3 3.6 95 0.3 SSW 17 20 9 11 1009.7 1010.4 27.6
24/11:00pm 4.4 -0.6 3.7 95 0.3 SSW 19 22 10 12 1009.4 1010.1 26.8
24/10:30pm 4.6 -0.4 3.7 94 0.4 SSW 19 28 10 15 1009.2 1009.9 26.2
24/10:14pm 4.7 0.5 4.0 95 0.3 S 15 19 8 10 1009.3 1010.0 26.0
24/10:00pm 4.7 0.6 4.1 96 0.3 SSE 15 20 8 11 1009.2 1009.9 25.8
24/09:49pm 4.7 0.6 4.1 96 0.3 SSE 15 20 8 11 1009.3 1010.0 25.8
24/09:39pm 4.7 0.6 4.3 97 0.2 SE 15 19 8 10 1009.2 1009.9 25.6
24/09:34pm 4.7 0.6 4.3 97 0.2 SSE 15 19 8 10 1009.3 1010.0 25.6
24/09:30pm 4.7 0.6 4.3 97 0.2 SSE 15 17 8 9 1009.4 1010.1 25.6
24/09:00pm 4.6 1.6 4.2 97 0.2 S 9 11 5 6 1009.7 1010.4 24.8
24/08:44pm 4.5 1.9 4.1 97 0.2 SSW 7 9 4 5 1009.9 1010.5 24.4
24/08:30pm 4.4 1.7 3.8 96 0.3 SSW 7 9 4 5 1009.9 1010.5 24.2
24/08:00pm 4.4 1.7 3.7 95 0.3 SSW 7 9 4 5 1010.1 1010.7 22.8
24/07:30pm 4.4 1.3 3.7 95 0.3 S 9 11 5 6 1010.1 1010.7 22.2
24/07:00pm 4.4 1.3 3.7 95 0.3 S 9 13 5 7 1010.4 1011.1 21.0
24/06:50pm 4.3 1.2 3.6 95 0.3 SSE 9 11 5 6 1010.4 1011.1 20.6
24/06:30pm 4.3 -0.4 3.4 94 0.4 SE 17 22 9 12 1010.3 1011.0 19.4
24/06:15pm 4.4 -1.2 3.4 93 0.4 SE 22 28 12 15 1010.0 1010.6 18.8
24/06:02pm 4.7 -0.4 4.0 95 0.3 SE 20 28 11 15 1010.0 1010.6 17.8
24/06:00pm 4.9 0.0 4.2 95 0.3 SE 19 24 10 13 1010.0 1010.6 17.8
24/05:40pm 5.1 -0.8 3.8 91 0.6 SSE 24 30 13 16 1010.5 1011.2 15.8
24/05:30pm 5.4 -0.1 4.1 91 0.6 SSE 22 30 12 16 1010.3 1011.0 14.6
24/05:29pm 5.4 0.3 4.1 91 0.6 SSE 20 30 11 16 1010.3 1011.0 14.4
24/05:13pm 5.7 0.9 4.7 93 0.4 SSE 19 26 10 14 1010.3 1011.0 12.8
24/05:00pm 5.8 0.9 5.1 95 0.3 SSE 20 28 11 15 1010.0 1010.6 11.6
24/04:36pm 6.1 1.8 5.4 95 0.3 S 17 20 9 11 1009.6 1010.3 10.0
24/04:30pm 6.1 1.8 5.4 95 0.3 SSE 17 20 9 11 1009.5 1010.2 9.8
24/04:03pm 6.2 1.6 5.5 95 0.3 SSE 19 24 10 13 1009.1 1009.8 8.8
24/04:00pm 6.2 1.6 5.5 95 0.3 SSE 19 24 10 13 1009.0 1009.7 8.8
24/03:48pm 6.4 2.6 5.8 96 0.3 S 15 22 8 12 1009.4 1010.1 8.2
24/03:30pm 6.4 2.6 5.7 95 0.3 SSW 15 19 8 10 1009.5 1010.2 7.0
24/03:00pm 6.6 2.8 5.7 94 0.4 SSE 15 19 8 10 1009.4 1010.1 5.4
24/02:30pm 6.6 2.4 5.7 94 0.4 SE 17 22 9 12 1009.7 1010.4 4.6
24/02:00pm 6.7 2.5 5.8 94 0.4 SE 17 20 9 11 1010.1 1010.7 3.6
24/01:45pm 6.7 1.9 5.8 94 0.4 SSE 20 24 11 13 1010.1 1010.7 2.8
24/01:30pm 6.9 2.3 5.7 92 0.6 SSE 19 20 10 11 1010.5 1011.2 1.4
24/01:00pm 7.5 3.0 6.0 90 0.7 SSE 19 24 10 13 1010.6 1011.3 0.4
24/12:38pm 8.0 3.3 5.3 83 1.3 SSE 19 28 10 15 1010.8 1011.5 0.0
24/12:36pm 8.2 3.5 5.3 82 1.3 SE 19 28 10 15 1010.8 1011.5 0.0
24/12:30pm 8.4 4.2 5.9 84 1.2 SE 17 22 9 12 1010.9 1011.6 0.0
24/12:05pm 8.6 3.8 5.7 82 1.4 SE 20 28 11 15 1010.9 1011.6 0.0
24/12:00pm 8.4 3.7 5.2 80 1.5 SE 19 28 10 15 1011.0 1011.7 0.0
24/11:30am 8.8 4.6 5.7 81 1.5 ESE 17 22 9 12 1012.0 1012.7 0.0

Other Formats:

Comma delimited format used in spreadsheet applications
http://www.bom.gov.au/fwo/IDN60801/IDN60801.95716.axf

JavaScript Object Notation format (JSON) in row-major order
http://www.bom.gov.au/fwo/IDN60801/IDN60801.95716.json